Terminal Aerodrome Forecast
Issued by NWS

Current Version | Previous Version | Text Only | Print | Product List | Glossary On
Versions: 1 2 3 4 5 6 7 8 9 10 11 12 13 14 15 16 17 18 19 20 21
000
FTUS43 KAPX 210200 AAA
TAFAPN
TAF AMD
KAPN 210255Z 2103/2124 VRB03KT P6SM SCT015 BKN025
     FM210600 VRB03KT 3SM BR OVC008
     FM210900 00000KT 1SM BR OVC004
     FM211500 11005KT P6SM BKN015=

USA.gov is the U.S. government's official web portal to all federal, state and local government web resources and services.